»·PEaware :: N359W KRDD-KMFR

N359W :: KRDD-KMFR

FLIGHT INFORMATION

Flight Status: Arrived
Operator: Privately registered:
United States
More flights under this callsign
Pilot: Anonymous 18613 (18613)
Aircraft: BEECH AIRCRAFT BARON
(BE58)
More flights by this aircraft type
Origin: KRDD Redding Mun
United States
Destination: KMFR Rogue Valley Intl-Medford
United States
More flights between these airports :: More routes between these airports
Route: SHA3 FJS V495 BAYTS
File this flight plan on PilotEdge
Remarks:
Altitude:
(Current/Filed)
12,000ft
Speed:
(Current/Filed)
185kts
Departed: 22-Jul-18 04:29 PM
Arrived: 22-Jul-18 05:32 PM
Distance/Time
Traveled:
115nm/1:03
Distance/Time
To Go:
Arrived

Flight Plot

Page will automatically refresh every two minutes.

Flight plan parsing failed; only flown route is shown


Map Options




Map Legend


Flown Route
Filed Route
Departure Airport
Arrival Airport
Navaid (VOR, NDB)
Fix

Horizontal Profiles

Position Reports

Time Latitude Longitude Heading Altitude Ground
Speed
22-Jul-18 16:14 40.509324 -122.297447 360 504ft 0kts
22-Jul-18 16:15 40.509324 -122.297447 360 504ft 0kts
22-Jul-18 16:16 40.509324 -122.297447 360 504ft 0kts
22-Jul-18 16:17 40.509324 -122.297447 360 504ft 0kts
22-Jul-18 16:18 40.509324 -122.297447 360 504ft 0kts
22-Jul-18 16:19 40.509324 -122.297447 360 504ft 0kts
22-Jul-18 16:20 40.509324 -122.297447 360 504ft 0kts
22-Jul-18 16:21 40.509324 -122.297447 360 504ft 0kts
22-Jul-18 16:22 40.508440 -122.297746 210 504ft 6kts
22-Jul-18 16:23 40.507854 -122.298499 204 504ft 0kts
22-Jul-18 16:24 40.509801 -122.296291 358 504ft 22kts
22-Jul-18 16:25 40.516707 -122.296278 0 504ft 27kts
22-Jul-18 16:26 40.520232 -122.295868 82 504ft 0kts
22-Jul-18 16:27 40.520232 -122.295867 84 504ft 0kts
22-Jul-18 16:28 40.520233 -122.295867 84 504ft 0kts
22-Jul-18 16:29 40.520119 -122.294850 181 504ft 0kts
22-Jul-18 16:30 40.509810 -122.294774 179 589ft 111kts
22-Jul-18 16:31 40.477134 -122.292585 176 1906ft 121kts
22-Jul-18 16:32 40.444972 -122.289656 176 3182ft 121kts
22-Jul-18 16:33 40.413679 -122.292080 227 4358ft 124kts
22-Jul-18 16:34 40.428148 -122.325950 327 5428ft 137kts
22-Jul-18 16:35 40.459719 -122.349417 328 6494ft 136kts
22-Jul-18 16:36 40.493867 -122.362589 347 7504ft 136kts
22-Jul-18 16:37 40.528727 -122.373899 343 8208ft 150kts
22-Jul-18 16:38 40.568146 -122.389874 340 8945ft 152kts
22-Jul-18 16:39 40.607832 -122.407436 340 9681ft 152kts
22-Jul-18 16:40 40.646833 -122.425300 339 10369ft 151kts
22-Jul-18 16:41 40.684824 -122.442986 339 11008ft 150kts
22-Jul-18 16:42 40.723334 -122.461065 339 11621ft 150kts
22-Jul-18 16:43 40.762745 -122.479590 339 11989ft 163kts
22-Jul-18 16:44 40.808052 -122.500938 339 11982ft 179kts
22-Jul-18 16:45 40.855514 -122.523301 340 11981ft 183kts
22-Jul-18 16:46 40.903169 -122.545764 340 11980ft 184kts
22-Jul-18 16:47 40.948287 -122.567075 340 11980ft 184kts
22-Jul-18 16:48 40.995182 -122.589250 339 11998ft 183kts
22-Jul-18 16:49 41.040722 -122.610852 339 12031ft 182kts
22-Jul-18 16:50 41.086573 -122.632630 338 12072ft 181kts
22-Jul-18 16:51 41.128575 -122.652457 337 12107ft 179kts
22-Jul-18 16:52 41.175068 -122.675166 337 12108ft 180kts
22-Jul-18 16:53 41.221774 -122.697560 337 12037ft 183kts
22-Jul-18 16:54 41.269325 -122.720299 337 12035ft 181kts
22-Jul-18 16:55 41.316589 -122.742913 337 12035ft 180kts
22-Jul-18 16:56 41.363707 -122.765486 337 12035ft 180kts
22-Jul-18 16:57 41.410468 -122.787918 337 12035ft 180kts
22-Jul-18 16:58 41.457584 -122.810555 337 12035ft 180kts
22-Jul-18 16:59 41.504230 -122.833019 337 12035ft 180kts
22-Jul-18 17:00 41.549235 -122.854704 337 12035ft 180kts
22-Jul-18 17:01 41.595358 -122.876965 337 12035ft 180kts
22-Jul-18 17:02 41.638020 -122.873936 29 12037ft 186kts
22-Jul-18 17:03 41.681919 -122.837326 31 12035ft 187kts
22-Jul-18 17:04 41.725578 -122.799520 31 12027ft 187kts
22-Jul-18 17:05 41.769959 -122.760956 31 10622ft 191kts
22-Jul-18 17:06 41.812741 -122.723780 30 10030ft 181kts
22-Jul-18 17:07 41.861787 -122.707693 8 10030ft 185kts
22-Jul-18 17:08 41.912769 -122.707527 353 10012ft 186kts
22-Jul-18 17:09 41.963239 -122.719646 335 10011ft 185kts
22-Jul-18 17:10 42.010916 -122.746088 335 10003ft 185kts
22-Jul-18 17:11 42.058502 -122.772427 335 9995ft 185kts
22-Jul-18 17:12 42.104952 -122.798042 335 9986ft 184kts
22-Jul-18 17:13 42.152344 -122.824118 335 9979ft 184kts
22-Jul-18 17:14 42.199715 -122.850155 335 9975ft 183kts
22-Jul-18 17:15 42.247048 -122.876147 335 9763ft 192kts
22-Jul-18 17:16 42.295718 -122.902755 335 8196ft 185kts
22-Jul-18 17:17 42.334792 -122.923829 335 6941ft 176kts
22-Jul-18 17:18 42.379737 -122.947802 335 7030ft 179kts
22-Jul-18 17:19 42.434396 -122.976880 331 7027ft 181kts
22-Jul-18 17:20 42.476272 -123.010721 325 6496ft 164kts
22-Jul-18 17:21 42.514923 -123.042089 325 6501ft 163kts
22-Jul-18 17:22 42.556414 -123.075761 325 6503ft 180kts
22-Jul-18 17:23 42.592531 -123.104635 334 6494ft 185kts
22-Jul-18 17:24 42.626229 -123.058810 64 6491ft 176kts
22-Jul-18 17:25 42.615086 -123.006852 132 6491ft 140kts
22-Jul-18 17:26 42.582302 -122.981713 165 6999ft 87kts
22-Jul-18 17:27 42.551373 -122.964423 159 6745ft 146kts
22-Jul-18 17:28 42.514098 -122.945607 165 7450ft 123kts
22-Jul-18 17:29 42.477381 -122.927008 162 6163ft 137kts
22-Jul-18 17:30 42.442534 -122.908718 162 4340ft 134kts
22-Jul-18 17:31 42.408692 -122.890960 162 2517ft 130kts
22-Jul-18 17:32 42.379110 -122.875432 159 1334ft 69kts
22-Jul-18 17:33 42.375523 -122.875191 184 1334ft 6kts
22-Jul-18 17:34 42.371815 -122.873202 159 1334ft 30kts
22-Jul-18 17:35 42.371175 -122.876094 294 1334ft 0kts

Navigation Log

Ident Type
Flight plan parsing failed, navigation log unavailable